Newport, NC (28570)

3:45 PM EST on February 09, 2016 (GMT -0500)
Southpark | | Change Station
CLOSE
Current Station
Personal Weather Station
Location: Newport, NC
Elevation: 19 ft
Nearby Weather Stations

Elev 19 ft 34.79 °N, 76.86 °W | Updated 5 minutes ago

Overcast
Overcast
47.1 °F
Feels Like 47 °F
N
2.0
Wind Variable Wind from SW
Gusts 2.0 mph

Today
High -- | Low -- °F
--% Chance of Precip.
Yesterday
High -- | Low -- °F
Precip. -- in
Pressure 29.64 in
Visibility -9999.0 miles
Clouds Mostly Cloudy 6000 ft
Windchill 47 °F
Dew Point 33 °F
Humidity 57%
Rainfall 0.00 in
Snow Depth Not available.
6:59 AM 5:44 PM
New Moon, 2% visible
METAR KNKT 091954Z 27015KT BKN060 09/M02 A2964 RMK AO2 SLP035 T00941017
Pressure 29.64 in
Visibility -9999.0 miles
Clouds Mostly Cloudy 6000 ft
Windchill 47 °F
Dew Point 33 °F
Humidity 57%
Rainfall 0.00 in
Snow Depth Not available.
6:59 AM 5:44 PM
New Moon, 2% visible
METAR KNKT 091954Z 27015KT BKN060 09/M02 A2964 RMK AO2 SLP035 T00941017

10-Day Weather Forecast

Almanac

Astronomy

Feb. 09, 2016 Rise Set
Actual Time
Civil Twilight
Nautical Twilight
Astronomical Twilight
Moon
Length of Visible Light
Length of Day
Tomorrow will be .
, % of the Moon is Illuminated

Today's Extremes

State Highs State Lows

Community

WunderPhotos

Upload Photos

1,891,683 photos uploaded!

WunderBlog® & News

Nearby

Air Quality

  Air Quality AQ Index Pollutant
Not available.

Snow Depth

Station Depth Elevation

Earthquake Activity

City Distance Mag. Time & Date
Minimum magnitude displayed is 2.5.

Coastal Water Temperatures

Place Temperature

Stations

Nearby Weather Stations

Station Location Temp. Windchill Dew Point Humidity Wind Precip. Elev Updated Type
                   

Watches & Warnings

There are currently no watches in effect.